createdAt,value
2022-08-28T00:05:49.405Z,76.30
2022-08-28T00:13:54.868Z,76.00
2022-08-28T00:22:04.988Z,76.60
2022-08-28T00:30:11.656Z,77.00
2022-08-28T00:38:21.758Z,77.00
2022-08-28T00:46:27.676Z,77.30
2022-08-28T00:54:40.113Z,77.10
2022-08-28T01:02:45.602Z,77.50
2022-08-28T01:10:57.147Z,77.20
2022-08-28T01:19:03.320Z,77.30
2022-08-28T01:27:11.366Z,77.60
2022-08-28T01:35:20.455Z,78.00
2022-08-28T01:43:31.581Z,79.20
2022-08-28T01:51:38.056Z,79.10
2022-08-28T01:59:46.458Z,78.10
2022-08-28T02:07:52.279Z,78.10
2022-08-28T02:16:00.997Z,78.50
2022-08-28T02:24:06.692Z,78.30
2022-08-28T02:32:15.023Z,78.20
2022-08-28T02:40:25.598Z,79.30
2022-08-28T02:48:37.916Z,79.40
2022-08-28T02:56:43.848Z,79.70
2022-08-28T03:04:51.946Z,79.80
2022-08-28T03:12:57.394Z,80.40
2022-08-28T03:21:05.750Z,80.30
2022-08-28T03:29:11.173Z,80.40
2022-08-28T03:37:19.214Z,80.80
2022-08-28T03:45:24.956Z,80.80
2022-08-28T03:53:34.662Z,81.10
2022-08-28T04:01:42.491Z,81.40
2022-08-28T04:09:50.659Z,82.00
2022-08-28T04:17:56.399Z,81.70
2022-08-28T04:26:06.850Z,81.80
2022-08-28T04:34:12.474Z,81.40
2022-08-28T04:42:20.613Z,81.80
2022-08-28T04:50:25.988Z,82.70
2022-08-28T04:58:34.497Z,81.80
2022-08-28T05:06:43.530Z,81.20
2022-08-28T05:14:51.886Z,81.50
2022-08-28T05:22:57.547Z,81.60
2022-08-28T05:31:16.252Z,80.20
2022-08-28T05:39:21.750Z,80.10
2022-08-28T05:47:32.807Z,78.80
2022-08-28T05:55:38.207Z,78.40
2022-08-28T06:03:48.947Z,76.10
2022-08-28T06:11:56.181Z,76.80
2022-08-28T06:20:05.750Z,75.60
2022-08-28T06:28:11.453Z,74.30
2022-08-28T06:36:19.821Z,73.70
2022-08-28T06:44:26.182Z,72.10
2022-08-28T06:52:34.652Z,70.00
2022-08-28T07:00:43.598Z,70.50
2022-08-28T07:08:52.755Z,70.70
2022-08-28T07:16:58.143Z,71.80
2022-08-28T07:25:06.879Z,68.90
2022-08-28T07:33:12.324Z,68.40
2022-08-28T07:41:24.284Z,66.90
2022-08-28T07:49:29.690Z,65.00
2022-08-28T07:57:38.033Z,63.70
2022-08-28T08:05:44.343Z,64.00
2022-08-28T08:13:52.954Z,64.40
2022-08-28T08:21:58.742Z,62.30
2022-08-28T08:30:07.583Z,62.00
2022-08-28T08:38:13.062Z,60.40
2022-08-28T08:46:22.428Z,59.00
2022-08-28T08:54:28.037Z,59.20
2022-08-28T09:02:41.702Z,58.80
2022-08-28T09:10:56.009Z,58.60
2022-08-28T09:19:05.514Z,57.70
2022-08-28T09:27:24.359Z,57.10
2022-08-28T09:35:34.727Z,56.30
2022-08-28T09:43:41.769Z,56.00
2022-08-28T09:51:50.848Z,54.60
2022-08-28T09:59:57.323Z,53.40
2022-08-28T10:08:13.096Z,51.10
2022-08-28T10:16:32.029Z,51.30
2022-08-28T10:24:54.823Z,49.10
2022-08-28T10:33:22.678Z,47.50
2022-08-28T10:41:40.029Z,45.90
2022-08-28T10:49:48.147Z,45.60
2022-08-28T10:58:00.738Z,42.00
2022-08-28T11:06:11.805Z,31.80
2022-08-28T11:14:31.283Z,27.80
2022-08-28T11:22:41.462Z,25.90
2022-08-28T11:30:53.156Z,24.70
2022-08-28T11:39:08.883Z,24.50
2022-08-28T11:47:52.443Z,23.90
2022-08-28T11:56:37.498Z,23.60
2022-08-28T12:04:45.798Z,23.00
2022-08-28T12:12:59.597Z,22.70
2022-08-28T12:21:08.026Z,22.60
2022-08-28T12:29:31.707Z,22.40
2022-08-28T12:37:51.985Z,23.20
2022-08-28T12:46:05.581Z,22.60
2022-08-28T12:54:24.625Z,22.50
2022-08-28T13:02:36.202Z,22.90
2022-08-28T13:10:52.272Z,23.10
2022-08-28T13:19:15.748Z,23.80
2022-08-28T13:27:26.251Z,27.50
2022-08-28T13:35:42.189Z,31.40
2022-08-28T13:43:49.837Z,34.70
2022-08-28T13:51:59.110Z,36.40
2022-08-28T14:00:04.658Z,38.50
2022-08-28T14:08:16.009Z,38.90
2022-08-28T14:16:21.518Z,40.20
2022-08-28T14:24:29.773Z,41.80
2022-08-28T14:32:35.379Z,44.20
2022-08-28T14:40:46.138Z,46.10
2022-08-28T14:48:52.085Z,46.70
2022-08-28T14:57:00.860Z,47.30
2022-08-28T15:05:06.468Z,47.90
2022-08-28T15:13:15.321Z,48.10
2022-08-28T15:21:23.098Z,47.20
2022-08-28T15:29:31.934Z,47.10
2022-08-28T15:37:37.317Z,48.10
2022-08-28T15:45:45.526Z,48.50
2022-08-28T15:53:51.115Z,49.80
2022-08-28T16:01:59.658Z,51.30
2022-08-28T16:10:07.185Z,50.90
2022-08-28T16:18:16.043Z,52.50
2022-08-28T16:26:21.506Z,54.10
2022-08-28T16:34:31.641Z,53.20
2022-08-28T16:42:37.067Z,53.30
2022-08-28T16:50:46.977Z,53.10
2022-08-28T16:58:53.018Z,53.30
2022-08-28T17:07:01.455Z,53.80
2022-08-28T17:15:07.334Z,54.60
2022-08-28T17:23:15.367Z,54.80
2022-08-28T17:31:21.415Z,55.30
2022-08-28T17:39:29.631Z,55.50
2022-08-28T17:47:35.268Z,55.60
2022-08-28T17:55:43.304Z,56.30
2022-08-28T18:03:53.560Z,58.50
2022-08-28T18:12:01.741Z,59.40
2022-08-28T18:20:09.531Z,59.70
2022-08-28T18:28:22.338Z,60.30
2022-08-28T18:36:27.997Z,61.70
2022-08-28T18:44:39.122Z,62.30
2022-08-28T18:52:44.782Z,62.50
2022-08-28T19:00:53.532Z,63.00
2022-08-28T19:09:00.427Z,63.90
2022-08-28T19:17:09.574Z,65.00
2022-08-28T19:25:28.876Z,65.20
2022-08-28T19:33:37.257Z,65.80
2022-08-28T19:41:43.770Z,65.80
2022-08-28T19:49:55.213Z,66.00
2022-08-28T19:58:05.371Z,66.00
2022-08-28T20:06:13.546Z,66.10
2022-08-28T20:14:20.972Z,66.00
2022-08-28T20:22:29.054Z,66.20
2022-08-28T20:30:34.758Z,65.90
2022-08-28T20:38:43.490Z,66.40
2022-08-28T20:46:51.610Z,66.50
2022-08-28T20:55:00.159Z,67.10
2022-08-28T21:03:05.733Z,67.60
2022-08-28T21:11:13.748Z,68.30
2022-08-28T21:19:19.884Z,68.90
2022-08-28T21:27:28.503Z,68.90
2022-08-28T21:35:33.975Z,69.00
2022-08-28T21:43:42.262Z,69.30
2022-08-28T21:51:47.647Z,70.00
2022-08-28T21:59:55.637Z,69.20
2022-08-28T22:08:01.113Z,70.60
2022-08-28T22:16:10.209Z,70.10
2022-08-28T22:24:16.578Z,70.60
2022-08-28T22:32:26.904Z,71.60
2022-08-28T22:40:33.219Z,72.20
2022-08-28T22:48:41.352Z,72.40
2022-08-28T22:56:46.818Z,72.20
2022-08-28T23:04:54.844Z,72.20
2022-08-28T23:13:00.319Z,73.60
2022-08-28T23:21:10.284Z,74.00
2022-08-28T23:29:16.166Z,74.40
2022-08-28T23:37:24.151Z,74.40
2022-08-28T23:45:30.033Z,74.40
2022-08-28T23:53:38.220Z,74.00
